Terminal Aerodrome Forecast
Issued by NWS

Home | Current Version | Previous Version | Text Only | Print | Product List | Glossary On
Versions: 1 2 3 4 5 6 7 8 9 10 11 12 13 14 15
075
FTUS42 KTBW 121123
TAFLAL
TAF
KLAL 121123Z 1212/1312 VRB02KT 3SM BR SKC
      TEMPO 1212/1214 1/4SM FG OVC002
     FM121400 21006KT P6SM SKC
     FM121800 25011KT P6SM SKC
     FM130200 25005KT P6SM SKC
     FM130600 VRB04KT 6SM BR FEW010=

USA.gov is the U.S. government's official web portal to all federal, state and local government web resources and services.